CheckWX is a tool to help pilots better visualize weather data.  It is not intended as a substitute for an official pre-flight weather briefing.

01:33:44 UTC

KERV METAR
Kerrville Municipal / Louis Schreiner Field Airport
Kerrville, Texas, USA
Current

19 mins ago

KERV 200115Z AUTO 12004KT 10SM CLR 33/18 A2997 RMK AO2 T03310181
Observed
Aug-20 @ 01:15 UTC
Wind
  • 120° at 4 KTS
Visibility
10 SM
Flight Rules
VFR
Cloud Levels
  • Clear skies
Temperature
33°C / 91°F
Dewpoint
18°C / 64°F
Heat Index
34°C / 93°F
Humidity
41%
Altimeter
29.97" Hg
Pressure
1014.92 hPa
Previous

39 mins ago

KERV 200055Z AUTO 12006KT 10SM CLR 33/17 A2996 RMK AO2 T03310170
Observed
Aug-20 @ 00:55 UTC
Wind
  • 120° at 6 KTS
Visibility
10 SM
Flight Rules
VFR
Cloud Levels
  • Clear skies
Temperature
33°C / 91°F
Dewpoint
17°C / 63°F
Humidity
38%
Altimeter
29.96" Hg
Pressure
1014.52 hPa
Previous

59 mins ago

KERV 200035Z AUTO 12008KT 10SM SCT070 34/17 A2996 RMK AO2 T03380171
Observed
Aug-20 @ 00:35 UTC
Wind
  • 120° at 8 KTS
Visibility
10 SM
Flight Rules
VFR
Cloud Levels
  • Scattered at 7,000' AGL
Temperature
34°C / 93°F
Dewpoint
17°C / 63°F
Humidity
36%
Altimeter
29.96" Hg
Pressure
1014.52 hPa